Oshkosh, Wisconsin
Current Conditions -  °F | °C
As of 2:53 PM on Thursday 20 Nov 2014 (Local Time) from KOSH Reporting Station
Clear Clear  
Wind Chill:   Ceiling: Unl
Heat Index: 19°   Visibility: 10mi
Dew Point:   Wind: 14mph
Humidity: 50%   Direction: 290°WNW
Pressure: 30.03"   Gusts: 21mph
Location:  44.03°N, 88.54°W
Report Text: KOSH 202053Z 29012G18KT 10SM CLR M07/M16 A3003 RMK AO2 SLP189 T10721161 53013
Loading
Personal Weather Stations






























Interactive Weather Map New forecast layout! Learn more

10-Day Weather Forecast

Advertisements
Track Severe Weather on mobile